Time;durP1;ratioP1;P1;durP2;ratioP2;P2;SDS_P1;SDS_P2;PMS_P1;PMS_P2;Temp;Humidity;BMP_temperature;BMP_pressure;BME280_temperature;BME280_humidity;BME280_pressure;Samples;Min_cycle;Max_cycle;Signal;HPM_P1;HPM_P2
2023/07/14 00:00:44;;;;;;;8.48;2.10;;;15.60;99.90;;;;;;5075384;28;20052;-80
2023/07/14 00:03:11;;;;;;;7.10;2.15;;;15.60;99.90;;;;;;5075038;28;20044;-80
2023/07/14 00:05:39;;;;;;;9.32;2.45;;;15.60;99.90;;;;;;5074413;28;20041;-79
2023/07/14 00:08:06;;;;;;;12.05;3.45;;;15.60;99.90;;;;;;5075121;28;20406;-80
2023/07/14 00:10:32;;;;;;;10.13;3.13;;;15.60;99.90;;;;;;5075494;28;20072;-80
2023/07/14 00:13:03;;;;;;;9.13;2.95;;;15.60;99.90;;;;;;5074192;28;20037;-78
2023/07/14 00:15:32;;;;;;;12.07;3.13;;;15.60;99.90;;;;;;5075108;28;20060;-80
2023/07/14 00:17:58;;;;;;;8.18;2.70;;;15.60;99.90;;;;;;5056981;28;20058;-79
2023/07/14 00:20:26;;;;;;;12.07;3.22;;;15.50;99.90;;;;;;5075122;28;20044;-80
2023/07/14 00:22:53;;;;;;;9.13;3.08;;;15.60;99.90;;;;;;5074918;28;20355;-80
2023/07/14 00:25:20;;;;;;;7.15;2.78;;;15.50;99.90;;;;;;5074432;28;20048;-79
2023/07/14 00:27:47;;;;;;;10.65;2.60;;;15.50;99.90;;;;;;5074931;28;20048;-80
2023/07/14 00:30:14;;;;;;;11.13;2.75;;;15.50;99.90;;;;;;5074806;28;20542;-80
2023/07/14 00:32:41;;;;;;;11.68;3.20;;;15.60;99.90;;;;;;5073663;28;20041;-79
2023/07/14 00:35:10;;;;;;;7.32;2.70;;;15.60;99.90;;;;;;5056789;28;20486;-79
2023/07/14 00:37:37;;;;;;;8.98;2.88;;;15.60;99.90;;;;;;5057099;28;20097;-79
2023/07/14 00:40:04;;;;;;;12.23;2.80;;;15.60;99.90;;;;;;5073453;28;20391;-79
2023/07/14 00:42:32;;;;;;;17.08;3.05;;;15.60;99.90;;;;;;5056799;28;20049;-79
2023/07/14 00:44:58;;;;;;;10.05;2.90;;;15.60;99.90;;;;;;5073925;28;20638;-80
2023/07/14 00:47:26;;;;;;;10.70;2.70;;;15.60;99.90;;;;;;5057012;28;20390;-80
2023/07/14 00:49:52;;;;;;;9.32;2.95;;;15.60;99.90;;;;;;5074420;28;20110;-78
2023/07/14 00:52:21;;;;;;;12.30;2.70;;;15.50;99.90;;;;;;5073525;28;20056;-79
2023/07/14 00:54:49;;;;;;;7.82;2.80;;;15.60;99.90;;;;;;5074592;28;20097;-78
2023/07/14 00:57:16;;;;;;;9.80;2.50;;;15.50;99.90;;;;;;5074673;28;20463;-79
2023/07/14 00:59:43;;;;;;;11.30;2.78;;;15.50;99.90;;;;;;5073635;28;20067;-80
2023/07/14 01:02:10;;;;;;;12.40;3.03;;;15.50;99.90;;;;;;5056676;28;20041;-80
2023/07/14 01:04:36;;;;;;;10.23;3.17;;;15.50;99.90;;;;;;5056054;28;20048;-80
2023/07/14 01:07:05;;;;;;;7.30;2.70;;;15.50;99.90;;;;;;5074649;28;20075;-79
2023/07/14 01:09:32;;;;;;;8.15;2.83;;;15.50;99.90;;;;;;5074327;28;20040;-79
2023/07/14 01:11:59;;;;;;;12.48;3.05;;;15.50;99.90;;;;;;5073245;28;20054;-80
2023/07/14 01:14:26;;;;;;;8.88;3.08;;;15.50;99.90;;;;;;5074544;28;20452;-79
2023/07/14 01:16:55;;;;;;;11.48;3.05;;;15.50;99.90;;;;;;5040051;28;20371;-80
2023/07/14 01:19:21;;;;;;;12.45;2.90;;;15.50;99.90;;;;;;5073650;28;20032;-80
2023/07/14 01:21:48;;;;;;;7.47;2.65;;;15.40;99.90;;;;;;5056451;28;20044;-79
2023/07/14 01:24:15;;;;;;;12.63;2.70;;;15.40;99.90;;;;;;5056786;28;20051;-80
2023/07/14 01:26:44;;;;;;;10.25;2.90;;;15.40;99.90;;;;;;5055859;28;20472;-80
2023/07/14 01:29:11;;;;;;;14.38;3.03;;;15.40;99.90;;;;;;5056645;28;20417;-80
2023/07/14 01:31:37;;;;;;;13.57;3.17;;;15.40;99.90;;;;;;5073057;28;20048;-80
2023/07/14 01:34:04;;;;;;;9.95;3.17;;;15.40;99.90;;;;;;5056758;28;20037;-80
2023/07/14 01:36:33;;;;;;;12.45;2.70;;;15.30;99.90;;;;;;5073981;28;20040;-79
2023/07/14 01:39:01;;;;;;;11.40;2.70;;;15.30;99.90;;;;;;5055735;28;20036;-79
2023/07/14 01:41:27;;;;;;;12.10;2.58;;;15.30;99.90;;;;;;5056301;28;20045;-81
2023/07/14 01:43:54;;;;;;;15.55;2.85;;;15.30;99.90;;;;;;5074266;28;20036;-80
2023/07/14 01:46:22;;;;;;;9.05;2.50;;;15.30;99.90;;;;;;5073426;28;20052;-80
2023/07/14 01:48:49;;;;;;;8.57;3.03;;;15.30;99.90;;;;;;5074083;28;20033;-80
2023/07/14 01:51:15;;;;;;;8.52;2.83;;;15.30;99.90;;;;;;5074792;28;20102;-80
2023/07/14 01:53:42;;;;;;;10.30;2.70;;;15.30;99.90;;;;;;5077673;28;20098;-79
2023/07/14 01:56:13;;;;;;;9.38;2.85;;;15.30;99.90;;;;;;5060237;28;20048;-81
2023/07/14 01:58:40;;;;;;;13.05;3.95;;;15.30;99.90;;;;;;5059185;28;20044;-80
2023/07/14 02:01:08;;;;;;;12.52;3.17;;;15.30;99.90;;;;;;5060025;28;20436;-80
2023/07/14 02:03:35;;;;;;;8.90;2.83;;;15.30;99.90;;;;;;5059824;28;20040;-80
2023/07/14 02:06:04;;;;;;;10.75;2.85;;;15.40;99.90;;;;;;5076845;28;20123;-78
2023/07/14 02:08:31;;;;;;;13.55;3.10;;;15.40;99.90;;;;;;5059929;28;20044;-80
2023/07/14 02:10:57;;;;;;;11.98;3.13;;;15.40;99.90;;;;;;5059640;28;20044;-80
2023/07/14 02:13:24;;;;;;;9.07;3.05;;;15.40;99.90;;;;;;5058984;28;20044;-80
2023/07/14 02:15:52;;;;;;;11.23;3.33;;;15.40;99.90;;;;;;5059654;28;20040;-80
2023/07/14 02:18:18;;;;;;;11.13;3.05;;;15.40;99.90;;;;;;5058773;28;20110;-80
2023/07/14 02:20:47;;;;;;;9.43;3.10;;;15.40;99.90;;;;;;5059563;28;20036;-79
2023/07/14 02:23:14;;;;;;;11.90;3.03;;;15.40;99.90;;;;;;5077262;28;20418;-79
2023/07/14 02:25:41;;;;;;;11.27;2.75;;;15.40;99.90;;;;;;5076371;28;20185;-79
2023/07/14 02:28:08;;;;;;;12.68;2.70;;;15.40;99.90;;;;;;5059894;28;20041;-80
2023/07/14 02:30:35;;;;;;;12.65;2.97;;;15.40;99.90;;;;;;5059315;28;20036;-79
2023/07/14 02:33:02;;;;;;;8.93;3.10;;;15.40;99.90;;;;;;5058310;28;20074;-80
2023/07/14 02:35:30;;;;;;;12.35;2.72;;;15.40;99.90;;;;;;5059042;28;20052;-81
2023/07/14 02:38:01;;;;;;;10.50;3.00;;;15.40;99.90;;;;;;5075899;28;20473;-80
2023/07/14 02:40:28;;;;;;;11.65;2.90;;;15.40;99.90;;;;;;5059546;28;20548;-79
2023/07/14 02:42:54;;;;;;;11.50;3.00;;;15.50;99.90;;;;;;5058868;28;20053;-80
2023/07/14 02:45:21;;;;;;;14.50;3.30;;;15.40;99.90;;;;;;5058561;28;20071;-79
2023/07/14 02:47:48;;;;;;;12.57;3.22;;;15.50;99.90;;;;;;5059224;28;20491;-79
2023/07/14 02:50:15;;;;;;;10.32;3.20;;;15.50;99.90;;;;;;5076603;28;20044;-81
2023/07/14 02:52:42;;;;;;;12.50;3.05;;;15.50;99.90;;;;;;5041401;28;20467;-79
2023/07/14 02:55:10;;;;;;;11.80;3.10;;;15.50;99.90;;;;;;5058859;28;20094;-80
2023/07/14 02:57:36;;;;;;;8.98;2.80;;;15.40;99.90;;;;;;5076743;28;20497;-81
2023/07/14 03:00:07;;;;;;;12.32;2.70;;;15.40;99.90;;;;;;5057959;28;20045;-80
2023/07/14 03:02:34;;;;;;;12.25;2.88;;;15.40;99.90;;;;;;5075981;28;20371;-79
2023/07/14 03:05:02;;;;;;;10.32;2.80;;;15.30;99.90;;;;;;5058067;28;20040;-79
2023/07/14 03:07:32;;;;;;;13.32;3.17;;;15.30;99.90;;;;;;5059197;28;20062;-81
2023/07/14 03:09:59;;;;;;;14.07;3.15;;;15.30;99.90;;;;;;5058587;28;20037;-81
2023/07/14 03:12:26;;;;;;;11.65;3.08;;;15.30;99.90;;;;;;5058039;28;20127;-81
2023/07/14 03:14:52;;;;;;;9.77;2.75;;;15.20;99.90;;;;;;5058734;28;20036;-79
2023/07/14 03:17:21;;;;;;;13.52;2.75;;;15.20;99.90;;;;;;5076309;28;20060;-77
2023/07/14 03:19:47;;;;;;;7.85;2.72;;;15.30;99.90;;;;;;5057723;28;20041;-76
2023/07/14 03:22:14;;;;;;;10.95;3.17;;;15.20;99.90;;;;;;5075655;28;20105;-77
2023/07/14 03:24:41;;;;;;;7.28;2.63;;;15.30;99.90;;;;;;5075073;28;20043;-78
2023/07/14 03:27:09;;;;;;;9.05;2.70;;;15.20;99.90;;;;;;5058619;28;20044;-79
2023/07/14 03:29:35;;;;;;;9.43;2.67;;;15.20;99.90;;;;;;5076076;28;20462;-78
2023/07/14 03:32:02;;;;;;;12.68;3.03;;;15.20;99.90;;;;;;5074617;28;20048;-78
2023/07/14 03:34:29;;;;;;;13.25;2.75;;;15.20;99.90;;;;;;5041780;28;20040;-78
2023/07/14 03:36:56;;;;;;;14.02;3.00;;;15.20;99.90;;;;;;5075955;28;20439;-78
2023/07/14 03:39:24;;;;;;;10.90;3.22;;;15.20;99.90;;;;;;5057203;28;20040;-78
2023/07/14 03:41:51;;;;;;;9.63;2.85;;;15.30;99.90;;;;;;5075168;28;20529;-78
2023/07/14 03:44:18;;;;;;;10.55;2.97;;;15.30;99.90;;;;;;5058234;28;20094;-78
2023/07/14 03:46:45;;;;;;;9.65;2.63;;;15.30;99.90;;;;;;5074650;28;20517;-78
2023/07/14 03:49:13;;;;;;;12.57;3.53;;;15.30;99.90;;;;;;5075614;28;20045;-78
2023/07/14 03:51:40;;;;;;;11.98;2.72;;;15.30;99.90;;;;;;5056475;28;20060;-78
2023/07/14 03:54:06;;;;;;;18.10;4.07;;;15.30;99.90;;;;;;5075501;28;20491;-78
2023/07/14 03:56:34;;;;;;;12.15;3.17;;;15.30;99.90;;;;;;5075651;28;20036;-77
2023/07/14 03:59:01;;;;;;;8.93;2.33;;;15.20;99.90;;;;;;5074699;28;20040;-77
2023/07/14 04:01:28;;;;;;;12.40;2.95;;;15.20;99.90;;;;;;5057244;28;20064;-78
2023/07/14 04:03:55;;;;;;;12.35;3.25;;;15.20;99.90;;;;;;5075465;28;20063;-78
2023/07/14 04:06:25;;;;;;;10.80;2.75;;;15.20;99.90;;;;;;5056700;28;20536;-79
2023/07/14 04:08:55;;;;;;;9.07;2.67;;;15.20;99.90;;;;;;5075173;28;20415;-78
2023/07/14 04:11:21;;;;;;;8.73;2.85;;;15.20;99.90;;;;;;5056286;28;20040;-77
2023/07/14 04:13:48;;;;;;;17.85;3.30;;;15.30;99.90;;;;;;5056798;28;20439;-77
2023/07/14 04:16:15;;;;;;;10.93;3.08;;;15.30;99.90;;;;;;5074763;28;20050;-78
2023/07/14 04:18:42;;;;;;;12.55;2.95;;;15.30;99.90;;;;;;5074148;28;20044;-78
2023/07/14 04:21:09;;;;;;;15.93;2.90;;;15.30;99.90;;;;;;5074838;28;20063;-78
2023/07/14 04:23:36;;;;;;;9.20;2.90;;;15.40;99.90;;;;;;5074931;28;20094;-77
2023/07/14 04:26:03;;;;;;;11.10;2.92;;;15.40;99.90;;;;;;5074174;28;20044;-78
2023/07/14 04:28:30;;;;;;;8.15;2.80;;;15.50;99.90;;;;;;5074689;28;20525;-76
2023/07/14 04:30:57;;;;;;;9.05;2.80;;;15.50;99.90;;;;;;5074349;28;20352;-77
2023/07/14 04:33:23;;;;;;;11.77;2.95;;;15.60;99.90;;;;;;5074350;28;20439;-78
2023/07/14 04:35:51;;;;;;;12.35;3.08;;;15.60;99.90;;;;;;5074707;28;20375;-78
2023/07/14 04:38:17;;;;;;;13.52;3.03;;;15.60;99.90;;;;;;5056469;28;20379;-78
2023/07/14 04:40:44;;;;;;;10.13;2.60;;;15.60;99.90;;;;;;5057030;28;20101;-79
2023/07/14 04:43:11;;;;;;;9.13;2.60;;;15.60;99.90;;;;;;5074673;28;20106;-79
2023/07/14 04:45:38;;;;;;;12.90;3.08;;;15.70;99.90;;;;;;5073478;28;20110;-78
2023/07/14 04:48:04;;;;;;;12.95;3.13;;;15.70;99.90;;;;;;5074877;28;20048;-79
2023/07/14 04:50:31;;;;;;;11.88;2.55;;;15.80;99.90;;;;;;5074541;28;20132;-78
2023/07/14 04:52:58;;;;;;;16.13;2.95;;;15.80;99.90;;;;;;5073798;28;20041;-78
2023/07/14 04:55:25;;;;;;;16.33;2.95;;;15.90;99.90;;;;;;5074639;28;20178;-79
2023/07/14 04:57:51;;;;;;;12.18;2.97;;;15.90;99.90;;;;;;5074843;28;20123;-79
2023/07/14 05:00:18;;;;;;;11.98;2.65;;;15.90;99.90;;;;;;5074591;28;20094;-78
2023/07/14 05:02:45;;;;;;;8.32;2.65;;;16.00;99.90;;;;;;5074491;28;20044;-79
2023/07/14 05:05:12;;;;;;;10.27;2.53;;;16.00;99.90;;;;;;5073602;28;20036;-79
2023/07/14 05:07:38;;;;;;;11.88;3.25;;;16.10;99.90;;;;;;5074605;28;20075;-79
2023/07/14 05:10:05;;;;;;;13.18;2.72;;;16.10;99.90;;;;;;5074510;28;20041;-78
2023/07/14 05:12:32;;;;;;;9.95;3.30;;;16.10;99.90;;;;;;5073458;28;20106;-78
2023/07/14 05:14:59;;;;;;;14.27;3.13;;;16.10;99.90;;;;;;5074436;28;20041;-78
2023/07/14 05:17:25;;;;;;;11.57;3.50;;;16.20;99.90;;;;;;5056758;28;20124;-77
2023/07/14 05:19:52;;;;;;;12.52;2.90;;;16.20;99.90;;;;;;5056294;28;20371;-78
2023/07/14 05:22:19;;;;;;;8.48;2.80;;;16.30;99.90;;;;;;5074111;28;20068;-78
2023/07/14 05:24:46;;;;;;;10.40;3.28;;;16.40;99.90;;;;;;5073391;28;20040;-77
2023/07/14 05:27:13;;;;;;;13.60;2.95;;;16.40;99.90;;;;;;5077839;28;20102;-77
2023/07/14 05:29:40;;;;;;;13.25;3.08;;;16.40;99.90;;;;;;5078236;28;20371;-78
2023/07/14 05:32:07;;;;;;;13.13;3.97;;;16.50;99.90;;;;;;5077105;28;20097;-78
2023/07/14 05:34:34;;;;;;;12.98;3.80;;;16.50;99.90;;;;;;5078039;28;20037;-79
2023/07/14 05:37:00;;;;;;;13.55;4.25;;;16.50;99.90;;;;;;5077990;28;20052;-78
2023/07/14 05:39:28;;;;;;;19.52;4.40;;;16.60;99.90;;;;;;5076963;28;20156;-78
2023/07/14 05:41:58;;;;;;;14.30;3.85;;;16.60;99.90;;;;;;5077837;28;20040;-79
2023/07/14 05:44:25;;;;;;;11.75;3.30;;;16.70;99.90;;;;;;5078210;28;20111;-78
2023/07/14 05:46:52;;;;;;;9.48;3.22;;;16.70;99.90;;;;;;5077022;28;20068;-78
2023/07/14 05:49:18;;;;;;;12.65;3.20;;;16.70;99.90;;;;;;5077510;28;20056;-78
2023/07/14 05:51:45;;;;;;;8.68;2.88;;;16.70;99.90;;;;;;5076535;28;20068;-78
2023/07/14 05:54:12;;;;;;;10.82;3.30;;;16.70;99.90;;;;;;5077689;28;20447;-78
2023/07/14 05:56:39;;;;;;;9.65;3.08;;;16.70;99.90;;;;;;5077676;28;20040;-78
2023/07/14 05:59:07;;;;;;;10.35;2.60;;;16.70;99.90;;;;;;5076587;28;20040;-78
2023/07/14 06:01:34;;;;;;;9.10;2.75;;;16.70;99.90;;;;;;5077445;28;20052;-78
2023/07/14 06:04:01;;;;;;;9.38;2.30;;;16.70;99.90;;;;;;5077482;28;20132;-78
2023/07/14 06:06:28;;;;;;;14.82;3.13;;;16.70;99.90;;;;;;5076680;28;20044;-78
2023/07/14 06:08:55;;;;;;;9.25;2.70;;;16.60;99.90;;;;;;5077620;28;20106;-78
2023/07/14 06:11:22;;;;;;;8.75;2.60;;;16.60;99.90;;;;;;5076290;28;20041;-79
2023/07/14 06:13:48;;;;;;;12.15;2.67;;;16.50;99.90;;;;;;5077484;28;20455;-79
2023/07/14 06:16:15;;;;;;;10.95;3.00;;;16.50;99.90;;;;;;5077467;28;20037;-79
2023/07/14 06:18:43;;;;;;;12.00;2.85;;;16.50;99.90;;;;;;5076535;28;20371;-78
2023/07/14 06:21:11;;;;;;;14.13;2.88;;;16.50;99.90;;;;;;5076843;28;20055;-79
2023/07/14 06:23:37;;;;;;;9.15;2.67;;;16.50;99.90;;;;;;5059485;28;20418;-78
2023/07/14 06:26:06;;;;;;;9.45;2.85;;;16.40;99.90;;;;;;5076227;28;20040;-78
2023/07/14 06:28:33;;;;;;;12.55;3.33;;;16.50;99.90;;;;;;5077241;28;20051;-78
2023/07/14 06:31:00;;;;;;;9.68;3.25;;;16.40;99.90;;;;;;5076633;28;20132;-78
2023/07/14 06:33:26;;;;;;;9.68;2.45;;;16.40;99.90;;;;;;5076192;28;20510;-78
2023/07/14 06:35:53;;;;;;;10.68;2.67;;;16.50;99.90;;;;;;5076861;28;20135;-78
2023/07/14 06:38:20;;;;;;;8.65;2.85;;;16.60;99.90;;;;;;5075124;28;20037;-78
2023/07/14 06:40:47;;;;;;;9.73;2.92;;;16.70;99.90;;;;;;5076730;28;20075;-78
2023/07/14 06:43:13;;;;;;;8.18;2.30;;;16.70;99.90;;;;;;5076364;28;20047;-77
2023/07/14 06:45:40;;;;;;;10.38;2.50;;;16.70;99.90;;;;;;5058328;28;20048;-78
2023/07/14 06:48:07;;;;;;;9.30;2.60;;;16.80;99.90;;;;;;5076750;28;20055;-78
2023/07/14 06:50:34;;;;;;;7.95;2.50;;;16.90;99.90;;;;;;5058590;28;20112;-78
2023/07/14 06:53:01;;;;;;;10.52;2.85;;;17.00;99.90;;;;;;5075625;28;20086;-78
2023/07/14 06:55:29;;;;;;;13.15;2.85;;;17.10;99.90;;;;;;5076506;28;20098;-77
2023/07/14 06:57:56;;;;;;;10.02;3.00;;;17.20;99.90;;;;;;5075947;28;20362;-78
2023/07/14 07:00:22;;;;;;;11.18;2.78;;;17.30;99.90;;;;;;5076306;28;20095;-80
2023/07/14 07:02:49;;;;;;;9.20;2.50;;;17.40;99.90;;;;;;5076351;28;20052;-78
2023/07/14 07:05:20;;;;;;;15.77;3.30;;;17.40;99.90;;;;;;5075003;28;20072;-79
2023/07/14 07:07:47;;;;;;;7.65;2.40;;;17.40;99.90;;;;;;5076207;28;20052;-78
2023/07/14 07:10:14;;;;;;;8.65;2.20;;;17.50;99.90;;;;;;5076258;28;20044;-79
2023/07/14 07:12:41;;;;;;;6.47;2.38;;;17.50;99.90;;;;;;5075150;28;20086;-78
2023/07/14 07:15:09;;;;;;;7.30;2.53;;;17.60;99.90;;;;;;5076210;28;20067;-78
2023/07/14 07:17:38;;;;;;;9.77;2.97;;;17.60;99.90;;;;;;5076247;28;20408;-79
2023/07/14 07:20:06;;;;;;;9.18;2.30;;;17.70;99.90;;;;;;5075186;28;20064;-79
2023/07/14 07:22:33;;;;;;;8.88;2.47;;;17.80;99.90;;;;;;5075607;28;20497;-79
2023/07/14 07:25:00;;;;;;;10.77;2.70;;;17.80;99.90;;;;;;5075125;28;20102;-80
2023/07/14 07:27:26;;;;;;;11.68;2.75;;;17.80;99.90;;;;;;5057936;28;20151;-79
2023/07/14 07:29:54;;;;;;;10.02;2.42;;;17.70;99.90;;;;;;5075737;28;20105;-79
2023/07/14 07:32:20;;;;;;;10.68;2.42;;;17.70;99.90;;;;;;5074770;28;20064;-79
2023/07/14 07:34:47;;;;;;;8.82;2.35;;;17.60;99.90;;;;;;5075701;28;20051;-79
2023/07/14 07:37:14;;;;;;;11.60;2.20;;;17.50;99.90;;;;;;5075978;28;20124;-79
2023/07/14 07:39:41;;;;;;;11.68;2.35;;;17.50;99.90;;;;;;5074738;28;20045;-79
2023/07/14 07:42:08;;;;;;;11.30;2.63;;;17.50;99.90;;;;;;5075328;28;20068;-79
2023/07/14 07:44:35;;;;;;;10.23;2.40;;;17.60;99.90;;;;;;5057545;28;20070;-80
2023/07/14 07:47:03;;;;;;;11.93;2.80;;;17.50;99.90;;;;;;5075114;28;20131;-79
2023/07/14 07:49:30;;;;;;;11.77;2.55;;;17.60;99.90;;;;;;5074508;28;20049;-79
2023/07/14 07:51:57;;;;;;;10.68;2.95;;;17.50;99.90;;;;;;5074171;28;20036;-78
2023/07/14 07:54:24;;;;;;;5.95;2.00;;;17.60;99.90;;;;;;5059114;28;20036;-80
2023/07/14 07:56:50;;;;;;;9.82;2.30;;;17.60;99.90;;;;;;5074776;28;20126;-79
2023/07/14 07:59:17;;;;;;;12.80;2.45;;;17.70;99.90;;;;;;5079359;28;20036;-79
2023/07/14 08:01:45;;;;;;;7.68;2.40;;;17.70;99.90;;;;;;5057293;28;20395;-79
2023/07/14 08:04:12;;;;;;;7.70;2.50;;;17.70;99.90;;;;;;5074935;28;20048;-78
2023/07/14 08:06:40;;;;;;;9.63;2.42;;;17.70;99.90;;;;;;5074463;28;20044;-79
2023/07/14 08:09:07;;;;;;;10.25;2.90;;;17.60;99.90;;;;;;5075322;28;20055;-80
2023/07/14 08:11:33;;;;;;;7.93;2.22;;;17.60;99.90;;;;;;5074022;28;20044;-81
2023/07/14 08:14:02;;;;;;;6.57;2.40;;;17.50;99.90;;;;;;5074891;28;20032;-80
2023/07/14 08:16:30;;;;;;;11.38;2.70;;;17.50;99.90;;;;;;5075150;28;20106;-80
2023/07/14 08:18:57;;;;;;;10.70;2.47;;;17.50;99.90;;;;;;5073800;28;20040;-79
2023/07/14 08:21:24;;;;;;;8.13;2.35;;;17.60;99.90;;;;;;5074728;28;20040;-80
2023/07/14 08:23:51;;;;;;;12.30;2.53;;;17.60;99.90;;;;;;5074773;28;20044;-79
2023/07/14 08:26:17;;;;;;;11.98;2.45;;;17.60;99.90;;;;;;5073761;28;20451;-78
2023/07/14 08:28:44;;;;;;;11.60;2.90;;;17.60;99.90;;;;;;5074770;28;20513;-79
2023/07/14 08:31:11;;;;;;;11.07;2.40;;;17.60;99.90;;;;;;5074415;28;20040;-78
2023/07/14 08:33:42;;;;;;;8.05;2.40;;;17.50;99.90;;;;;;5074207;28;20447;-79
2023/07/14 08:36:11;;;;;;;10.70;2.75;;;17.50;99.90;;;;;;5074503;28;20049;-79
2023/07/14 08:38:38;;;;;;;7.88;2.50;;;17.40;99.90;;;;;;5073174;28;20036;-79
2023/07/14 08:41:05;;;;;;;10.27;2.30;;;17.50;99.90;;;;;;5074156;28;20064;-78
2023/07/14 08:43:32;;;;;;;7.18;2.20;;;17.40;99.90;;;;;;5074357;28;20044;-79
2023/07/14 08:45:58;;;;;;;10.13;2.83;;;17.30;99.90;;;;;;5073632;28;20067;-80
2023/07/14 08:48:25;;;;;;;6.57;2.33;;;17.10;99.90;;;;;;5074323;28;20064;-78
2023/07/14 08:50:52;;;;;;;9.65;2.45;;;17.00;99.90;;;;;;5073810;28;20037;-79
2023/07/14 08:53:19;;;;;;;11.65;2.65;;;16.90;99.90;;;;;;5073683;28;20037;-78
2023/07/14 08:55:46;;;;;;;9.75;2.50;;;16.90;99.90;;;;;;5074096;28;20090;-77
2023/07/14 08:58:13;;;;;;;8.70;2.35;;;16.80;99.90;;;;;;5073140;28;20037;-79
2023/07/14 09:00:39;;;;;;;7.68;2.38;;;16.80;99.90;;;;;;5073594;28;20090;-79
2023/07/14 09:03:06;;;;;;;9.20;2.20;;;16.80;99.90;;;;;;5074156;28;20037;-78
2023/07/14 09:05:34;;;;;;;7.85;2.10;;;16.80;99.90;;;;;;5073248;28;20045;-77
2023/07/14 09:08:01;;;;;;;11.35;2.80;;;16.80;99.90;;;;;;5074341;28;20113;-80
2023/07/14 09:10:27;;;;;;;10.65;2.70;;;16.80;99.90;;;;;;5074246;28;20106;-79
2023/07/14 09:12:58;;;;;;;10.98;3.00;;;16.80;99.90;;;;;;5055642;28;20371;-81
2023/07/14 09:15:25;;;;;;;8.18;2.45;;;16.90;99.90;;;;;;5040265;28;20033;-79
2023/07/14 09:17:52;;;;;;;11.20;3.13;;;16.80;99.90;;;;;;5074162;28;20095;-79
2023/07/14 09:20:19;;;;;;;8.18;2.90;;;16.80;99.90;;;;;;5073971;28;20467;-80
2023/07/14 09:22:45;;;;;;;9.38;2.60;;;16.80;99.90;;;;;;5072818;28;20041;-80
2023/07/14 09:25:14;;;;;;;11.80;3.03;;;16.80;99.90;;;;;;5054704;28;20094;-79
2023/07/14 09:27:41;;;;;;;7.35;2.55;;;16.80;99.90;;;;;;5074446;28;20047;-80
2023/07/14 09:30:08;;;;;;;9.30;2.78;;;16.80;99.90;;;;;;5073945;28;20055;-80
2023/07/14 09:32:35;;;;;;;9.65;2.78;;;16.80;99.90;;;;;;5073362;28;20048;-79
2023/07/14 09:35:04;;;;;;;7.85;2.47;;;16.70;99.90;;;;;;5037080;28;20041;-82
2023/07/14 09:37:35;;;;;;;8.77;2.63;;;16.80;99.90;;;;;;5037475;28;20444;-79
2023/07/14 09:40:03;;;;;;;6.40;2.35;;;16.70;99.90;;;;;;5072917;28;20045;-78
2023/07/14 09:42:30;;;;;;;8.98;2.85;;;16.60;99.90;;;;;;5074321;28;20041;-80
2023/07/14 09:44:58;;;;;;;7.40;2.65;;;16.60;99.90;;;;;;5073350;28;20040;-79
2023/07/14 09:47:24;;;;;;;12.32;2.85;;;16.60;99.90;;;;;;5074569;28;20052;-80
2023/07/14 09:49:57;;;;;;;7.18;2.72;;;16.60;99.90;;;;;;5074194;28;20040;-79
2023/07/14 09:52:26;;;;;;;7.85;2.72;;;16.70;99.90;;;;;;5073383;28;20060;-79
2023/07/14 09:54:53;;;;;;;13.35;3.13;;;16.70;99.90;;;;;;5056516;28;20424;-79
2023/07/14 09:57:22;;;;;;;6.82;2.17;;;16.70;99.90;;;;;;5074392;28;20040;-79
2023/07/14 10:00:13;;;;;;;11.93;2.63;;;16.80;99.90;;;;;;5072926;28;20044;-79
2023/07/14 10:02:40;;;;;;;11.45;2.53;;;16.80;99.90;;;;;;5074508;28;20048;-79
2023/07/14 10:07:53;;;;;;;10.57;2.70;;;17.00;99.90;;;;;;5073606;28;20049;-80
2023/07/14 10:10:24;;;;;;;9.15;2.75;;;17.00;99.90;;;;;;5056534;28;20070;-80
2023/07/14 10:12:50;;;;;;;6.75;3.05;;;17.10;99.90;;;;;;5073329;28;20037;-79
2023/07/14 10:15:21;;;;;;;6.43;2.55;;;17.10;99.90;;;;;;5077239;28;20052;-80
2023/07/14 10:17:48;;;;;;;10.23;2.95;;;17.20;99.90;;;;;;5077655;28;20474;-80
2023/07/14 10:20:16;;;;;;;9.27;2.75;;;17.30;99.90;;;;;;5056282;28;20063;-80
2023/07/14 10:22:43;;;;;;;7.97;2.90;;;17.40;99.90;;;;;;5077107;28;20406;-80
2023/07/14 10:25:11;;;;;;;10.38;3.08;;;17.50;99.90;;;;;;5076864;28;20450;-79
2023/07/14 10:27:37;;;;;;;8.57;2.97;;;17.70;99.90;;;;;;5077090;28;20468;-78
2023/07/14 10:30:05;;;;;;;8.65;3.50;;;17.80;99.90;;;;;;5059425;28;20115;-79
2023/07/14 10:32:32;;;;;;;9.05;2.80;;;17.80;99.90;;;;;;5076234;28;20045;-78
2023/07/14 10:34:58;;;;;;;9.70;3.00;;;17.80;99.90;;;;;;5076700;28;20040;-79
2023/07/14 10:37:27;;;;;;;11.75;2.85;;;17.70;99.90;;;;;;5059632;28;20048;-78
2023/07/14 10:39:54;;;;;;;9.05;2.75;;;17.70;99.90;;;;;;5058016;28;20454;-79
2023/07/14 10:42:21;;;;;;;9.48;3.40;;;17.70;99.90;;;;;;5076737;28;20037;-79
2023/07/14 10:44:47;;;;;;;13.25;3.55;;;17.80;99.90;;;;;;5075935;28;20556;-77
2023/07/14 10:47:14;;;;;;;8.15;3.17;;;17.70;99.90;;;;;;5076678;28;20044;-79
2023/07/14 10:49:45;;;;;;;12.27;3.15;;;17.70;99.90;;;;;;5076664;28;20040;-79
2023/07/14 10:52:11;;;;;;;10.57;2.53;;;17.60;99.90;;;;;;5041932;28;20066;-82
2023/07/14 10:54:38;;;;;;;8.20;2.80;;;17.70;99.90;;;;;;5077064;28;20051;-82
2023/07/14 10:57:05;;;;;;;8.80;2.80;;;17.70;99.90;;;;;;5078273;28;20455;-82
2023/07/14 10:59:32;;;;;;;13.20;3.80;;;17.80;99.90;;;;;;5058782;28;20753;-82
2023/07/14 11:01:58;;;;;;;13.93;3.80;;;17.80;99.90;;;;;;5041612;28;20090;-81
2023/07/14 11:04:25;;;;;;;12.38;3.33;;;17.80;99.90;;;;;;5076880;28;20103;-81
2023/07/14 11:06:52;;;;;;;9.05;3.08;;;17.80;99.90;;;;;;5058245;28;20040;-82
2023/07/14 11:09:22;;;;;;;11.82;3.40;;;17.80;99.90;;;;;;5076695;28;20040;-81
2023/07/14 11:11:48;;;;;;;8.57;3.22;;;17.80;99.90;;;;;;5075415;28;20466;-80
2023/07/14 11:14:16;;;;;;;11.07;3.05;;;17.80;99.90;;;;;;5059512;28;20044;-80
2023/07/14 11:16:42;;;;;;;11.25;3.20;;;17.80;99.90;;;;;;5059139;28;20357;-80
2023/07/14 11:19:09;;;;;;;14.80;3.72;;;17.90;99.90;;;;;;5075343;28;20558;-82
2023/07/14 11:21:36;;;;;;;10.50;3.28;;;17.90;99.90;;;;;;5075956;28;20325;-81
2023/07/14 11:24:03;;;;;;;10.68;3.33;;;17.90;99.90;;;;;;5058471;28;20535;-81
2023/07/14 11:26:31;;;;;;;12.88;3.35;;;17.90;99.90;;;;;;5075342;28;20053;-82
2023/07/14 11:28:59;;;;;;;19.95;3.53;;;18.00;99.90;;;;;;5058682;28;20048;-82
2023/07/14 11:31:26;;;;;;;9.88;3.20;;;18.00;99.90;;;;;;5057376;28;20467;-82
2023/07/14 11:33:53;;;;;;;11.23;3.75;;;18.00;99.90;;;;;;5058320;28;20041;-80
2023/07/14 11:36:20;;;;;;;9.43;3.35;;;18.20;99.90;;;;;;5076033;28;20052;-81
2023/07/14 11:38:47;;;;;;;8.70;3.40;;;18.20;99.90;;;;;;5075341;28;20047;-80
2023/07/14 11:41:14;;;;;;;10.90;3.58;;;18.30;99.90;;;;;;5058357;28;20040;-81
2023/07/14 11:43:41;;;;;;;13.52;3.95;;;18.30;99.90;;;;;;5058561;28;20068;-83
2023/07/14 11:46:13;;;;;;;9.25;3.60;;;18.30;99.90;;;;;;5057668;28;20048;-81
2023/07/14 11:48:43;;;;;;;14.27;4.30;;;18.30;99.90;;;;;;5075666;28;20055;-81
2023/07/14 11:51:10;;;;;;;14.82;3.88;;;18.30;99.90;;;;;;5057755;28;20463;-82
2023/07/14 11:53:37;;;;;;;13.13;4.22;;;18.30;99.90;;;;;;5057563;28;20066;-81
2023/07/14 11:56:04;;;;;;;11.07;3.95;;;18.30;99.90;;;;;;5075569;28;20070;-81
2023/07/14 11:58:31;;;;;;;11.05;3.75;;;18.30;99.90;;;;;;5074708;28;20421;-79
2023/07/14 12:00:58;;;;;;;11.02;4.13;;;18.40;99.90;;;;;;5057879;28;20432;-80
2023/07/14 12:03:24;;;;;;;11.70;4.15;;;18.40;99.90;;;;;;5075484;28;20036;-80
2023/07/14 12:06:01;;;;;;;10.57;3.70;;;18.40;99.90;;;;;;5074412;28;20055;-81
2023/07/14 12:08:27;;;;;;;12.98;4.28;;;18.50;99.90;;;;;;5075807;28;20415;-80
2023/07/14 12:10:54;;;;;;;10.10;3.78;;;18.50;99.90;;;;;;5041131;28;20048;-81
2023/07/14 12:13:21;;;;;;;9.25;3.58;;;18.50;99.90;;;;;;5056572;28;20076;-82
2023/07/14 12:15:49;;;;;;;13.07;4.10;;;18.70;99.90;;;;;;5075151;28;20382;-81
2023/07/14 12:18:17;;;;;;;12.82;3.85;;;18.90;99.90;;;;;;5074254;28;20036;-81
2023/07/14 12:20:44;;;;;;;8.60;3.67;;;19.00;99.90;;;;;;5057757;28;20033;-83
2023/07/14 12:23:11;;;;;;;9.15;3.30;;;19.20;99.90;;;;;;5057998;28;20098;-79
2023/07/14 12:25:40;;;;;;;9.57;3.50;;;19.30;99.90;;;;;;5056785;28;20072;-81
2023/07/14 12:28:07;;;;;;;9.10;2.78;;;19.40;99.90;;;;;;5057581;28;20044;-81
2023/07/14 12:30:34;;;;;;;11.07;3.60;;;19.40;99.90;;;;;;5074729;28;20072;-81
2023/07/14 12:33:00;;;;;;;11.95;3.17;;;19.40;99.90;;;;;;5074032;28;20040;-81
2023/07/14 12:35:27;;;;;;;9.40;3.38;;;19.40;99.90;;;;;;5074290;28;20109;-81
2023/07/14 12:37:54;;;;;;;9.48;3.20;;;19.50;99.90;;;;;;5073760;28;20052;-80
2023/07/14 12:40:21;;;;;;;8.90;3.63;;;19.50;99.90;;;;;;5040407;28;20048;-81
2023/07/14 12:42:48;;;;;;;8.90;3.20;;;19.50;99.90;;;;;;5074966;28;20135;-80